Time;durP1;ratioP1;P1;durP2;ratioP2;P2;SDS_P1;SDS_P2;PMS_P1;PMS_P2;Temp;Humidity;BMP_temperature;BMP_pressure;BME280_temperature;BME280_humidity;BME280_pressure;Samples;Min_cycle;Max_cycle;Signal;HPM_P1;HPM_P2
2022/07/01 00:02:04;;;;;;;6.97;6.60;;;18.40;99.90;;;;;;10444991;28;20241;-79
2022/07/01 00:07:06;;;;;;;7.07;6.60;;;18.30;99.90;;;;;;10398034;28;20237;-80
2022/07/01 00:12:10;;;;;;;6.77;6.47;;;18.20;99.90;;;;;;10429255;28;20190;-80
2022/07/01 00:17:12;;;;;;;6.30;6.00;;;18.20;99.90;;;;;;10408118;28;20256;-79
2022/07/01 00:22:14;;;;;;;6.60;6.20;;;18.10;99.90;;;;;;10401830;28;20583;-79
2022/07/01 00:27:17;;;;;;;6.70;6.30;;;18.10;99.90;;;;;;10437186;28;20272;-80
2022/07/01 00:32:19;;;;;;;6.00;5.80;;;18.10;99.90;;;;;;10411286;28;20645;-79
2022/07/01 00:37:22;;;;;;;6.90;6.50;;;18.00;99.90;;;;;;10460000;22;20286;-76
2022/07/01 00:42:25;;;;;;;6.93;6.40;;;17.80;99.90;;;;;;10473076;28;20207;-78
2022/07/01 00:47:27;;;;;;;6.30;6.00;;;17.80;99.90;;;;;;10465874;28;20228;-78
2022/07/01 00:52:29;;;;;;;6.53;6.23;;;17.80;99.90;;;;;;10452527;28;20264;-77
2022/07/01 00:57:34;;;;;;;6.10;5.80;;;17.80;99.90;;;;;;10469540;28;20257;-77
2022/07/01 01:02:36;;;;;;;5.80;5.60;;;17.70;99.90;;;;;;10465211;28;20312;-76
2022/07/01 01:07:39;;;;;;;6.50;6.30;;;17.70;99.90;;;;;;10469451;28;20650;-78
2022/07/01 01:12:43;;;;;;;6.60;6.40;;;17.60;99.90;;;;;;10470965;28;20212;-78
2022/07/01 01:17:46;;;;;;;6.03;5.83;;;17.60;99.90;;;;;;10468165;28;20787;-78
2022/07/01 01:22:50;;;;;;;6.27;5.77;;;17.60;99.90;;;;;;10469847;28;20224;-77
2022/07/01 01:27:52;;;;;;;5.90;5.50;;;17.50;99.90;;;;;;10453598;28;20602;-77
2022/07/01 01:32:54;;;;;;;4.93;4.70;;;17.60;99.90;;;;;;10462704;28;20222;-77
2022/07/01 01:37:58;;;;;;;4.83;4.63;;;17.50;99.90;;;;;;10453636;28;20689;-77
2022/07/01 01:43:00;;;;;;;5.20;4.90;;;17.60;99.90;;;;;;10454577;28;20275;-77
2022/07/01 01:48:02;;;;;;;4.63;4.43;;;17.60;99.90;;;;;;10452798;28;20775;-77
2022/07/01 01:53:06;;;;;;;4.67;4.47;;;17.60;99.90;;;;;;10465832;28;20648;-77
2022/07/01 01:58:08;;;;;;;4.50;4.30;;;17.60;99.90;;;;;;10450356;28;20216;-77
2022/07/01 02:03:10;;;;;;;4.80;4.60;;;17.60;99.90;;;;;;10452772;28;20216;-78
2022/07/01 02:08:14;;;;;;;4.60;4.40;;;17.70;99.90;;;;;;10474268;28;20240;-78
2022/07/01 02:13:16;;;;;;;4.63;4.43;;;17.70;99.90;;;;;;10460448;28;20235;-78
2022/07/01 02:18:18;;;;;;;4.50;4.30;;;17.70;99.90;;;;;;10448992;28;20740;-77
2022/07/01 02:23:22;;;;;;;4.53;4.33;;;17.80;99.90;;;;;;10448415;28;20635;-77
2022/07/01 02:28:24;;;;;;;4.53;4.33;;;17.80;99.90;;;;;;10449279;28;20235;-76
2022/07/01 02:33:27;;;;;;;4.27;4.07;;;17.80;99.90;;;;;;10451280;28;20201;-77
2022/07/01 02:38:30;;;;;;;4.17;3.90;;;17.80;99.90;;;;;;10450167;28;20231;-77
2022/07/01 02:43:32;;;;;;;4.40;4.10;;;17.80;99.90;;;;;;10450776;28;20220;-77
2022/07/01 02:48:34;;;;;;;4.67;4.47;;;17.70;99.90;;;;;;10432199;28;20220;-76
2022/07/01 02:53:38;;;;;;;4.50;4.30;;;17.70;99.90;;;;;;10432361;28;20201;-77
2022/07/01 02:58:40;;;;;;;4.37;4.17;;;17.80;99.90;;;;;;10453698;28;20252;-77
2022/07/01 03:03:42;;;;;;;5.43;5.13;;;17.80;99.90;;;;;;10459668;28;20236;-78
2022/07/01 03:08:46;;;;;;;5.40;5.10;;;17.90;99.90;;;;;;10462712;28;20245;-79
2022/07/01 03:13:48;;;;;;;6.63;6.23;;;17.90;99.90;;;;;;10444543;28;20236;-78
2022/07/01 03:18:50;;;;;;;5.70;5.17;;;17.90;99.90;;;;;;10461692;28;20220;-78
2022/07/01 03:23:54;;;;;;;6.20;5.90;;;18.00;99.90;;;;;;10460540;28;20689;-79
2022/07/01 03:28:56;;;;;;;5.20;4.90;;;18.00;99.90;;;;;;10426930;28;20643;-79
2022/07/01 03:33:58;;;;;;;6.23;5.90;;;18.00;99.90;;;;;;10443896;28;20386;-79
2022/07/01 03:39:03;;;;;;;3.53;3.33;;;18.00;99.90;;;;;;10442079;28;20237;-77
2022/07/01 03:44:06;;;;;;;5.30;5.10;;;18.00;99.90;;;;;;10457020;28;20308;-78
2022/07/01 03:49:08;;;;;;;5.07;4.87;;;18.00;99.90;;;;;;10458196;28;20251;-77
2022/07/01 03:59:33;;;;;;;4.50;4.30;;;18.00;99.90;;;;;;10454407;28;20224;-77
2022/07/01 04:04:36;;;;;;;4.63;4.43;;;17.90;99.90;;;;;;10450656;28;20600;-77
2022/07/01 04:09:39;;;;;;;5.83;5.43;;;17.90;99.90;;;;;;10493014;28;20777;-78
2022/07/01 04:14:41;;;;;;;7.50;7.10;;;17.80;99.90;;;;;;10471128;28;20643;-78
2022/07/01 04:19:43;;;;;;;8.50;8.10;;;17.60;99.90;;;;;;10461987;28;20320;-77
2022/07/01 04:24:47;;;;;;;5.83;5.53;;;17.40;99.90;;;;;;10446098;28;20243;-78
2022/07/01 04:29:49;;;;;;;7.37;7.03;;;17.30;99.90;;;;;;10461416;28;20252;-77
2022/07/01 04:34:51;;;;;;;8.00;7.70;;;17.20;99.90;;;;;;10449205;28;20285;-77
2022/07/01 04:39:54;;;;;;;7.13;6.73;;;17.10;99.90;;;;;;10452551;28;20225;-76
2022/07/01 04:44:56;;;;;;;6.73;6.43;;;16.90;99.90;;;;;;10448348;28;20312;-77
2022/07/01 04:50:01;;;;;;;6.63;6.37;;;16.80;99.90;;;;;;10449167;28;20324;-77
2022/07/01 04:55:06;;;;;;;6.10;5.90;;;16.80;99.90;;;;;;10433699;28;20221;-77
2022/07/01 05:00:10;;;;;;;6.80;6.40;;;16.80;99.90;;;;;;10451111;28;20635;-76
2022/07/01 05:05:12;;;;;;;4.87;4.67;;;16.80;99.90;;;;;;10450322;28;20227;-77
2022/07/01 05:10:16;;;;;;;6.37;6.17;;;16.80;99.90;;;;;;10418183;28;20232;-77
2022/07/01 05:15:18;;;;;;;6.70;6.40;;;16.70;99.90;;;;;;10453143;28;20247;-78
2022/07/01 05:25:41;;;;;;;5.90;5.60;;;16.60;99.90;;;;;;10458258;28;20231;-77
2022/07/01 05:30:43;;;;;;;7.60;7.30;;;16.60;99.90;;;;;;10475210;28;20219;-77
2022/07/01 05:35:45;;;;;;;7.10;6.80;;;16.60;99.90;;;;;;10461463;28;20280;-77
2022/07/01 05:40:49;;;;;;;7.17;6.87;;;16.70;99.90;;;;;;10458619;28;20312;-77
2022/07/01 05:45:51;;;;;;;7.60;6.90;;;16.60;99.90;;;;;;10466994;28;20231;-77
2022/07/01 05:50:53;;;;;;;8.00;7.50;;;16.60;99.90;;;;;;10451122;28;20219;-77
2022/07/01 05:55:56;;;;;;;8.17;7.57;;;16.60;99.90;;;;;;10449360;28;20284;-77
2022/07/01 06:00:59;;;;;;;8.90;8.23;;;16.60;99.90;;;;;;10449263;28;20748;-77
2022/07/01 06:06:01;;;;;;;8.70;8.10;;;16.70;99.90;;;;;;10453712;28;20306;-76
2022/07/01 06:11:04;;;;;;;6.87;6.27;;;16.60;99.90;;;;;;10455534;28;20263;-77
2022/07/01 06:16:07;;;;;;;7.60;7.20;;;16.60;99.90;;;;;;10454639;28;20220;-76
2022/07/01 06:21:09;;;;;;;9.43;8.90;;;16.70;99.90;;;;;;10451764;28;20604;-77
2022/07/01 06:26:13;;;;;;;8.93;8.43;;;16.70;99.90;;;;;;10453404;28;20231;-78
2022/07/01 06:31:15;;;;;;;9.20;8.60;;;16.70;99.90;;;;;;10453812;28;20225;-78
2022/07/01 06:36:17;;;;;;;8.10;7.43;;;16.80;99.90;;;;;;10462994;28;20570;-78
2022/07/01 06:41:29;;;;;;;9.70;8.67;;;16.80;99.90;;;;;;10443042;28;20288;-77
2022/07/01 06:46:32;;;;;;;7.97;7.47;;;16.80;99.90;;;;;;10460486;28;20649;-77
2022/07/01 06:51:34;;;;;;;6.67;6.27;;;16.80;99.90;;;;;;10442487;28;20205;-77
2022/07/01 06:56:38;;;;;;;7.50;6.90;;;16.80;99.90;;;;;;10460712;28;20200;-78
2022/07/01 07:01:40;;;;;;;7.57;6.90;;;16.90;99.90;;;;;;10461988;28;20262;-79
2022/07/01 07:06:42;;;;;;;7.17;6.77;;;16.90;99.90;;;;;;10461658;28;20217;-78
2022/07/01 07:11:45;;;;;;;8.17;7.77;;;16.90;99.90;;;;;;10461105;28;20522;-78
2022/07/01 07:16:47;;;;;;;6.70;6.30;;;17.00;99.90;;;;;;10461477;28;20511;-78
2022/07/01 07:21:50;;;;;;;6.80;6.50;;;17.00;99.90;;;;;;10461848;28;20193;-79
2022/07/01 07:26:53;;;;;;;7.47;7.07;;;16.90;99.90;;;;;;10464766;28;20662;-78
2022/07/01 07:31:55;;;;;;;6.73;6.43;;;16.90;99.90;;;;;;10444261;28;20205;-79
2022/07/01 07:36:58;;;;;;;5.70;5.40;;;17.00;99.90;;;;;;10446757;28;20225;-79
2022/07/01 07:42:02;;;;;;;7.17;6.67;;;16.90;99.90;;;;;;10462710;28;20251;-79
2022/07/01 07:47:04;;;;;;;5.83;5.23;;;17.00;99.90;;;;;;10460201;28;20221;-79
2022/07/01 07:52:07;;;;;;;7.43;7.03;;;17.00;99.90;;;;;;10460644;28;20201;-79
2022/07/01 07:57:11;;;;;;;6.03;5.73;;;17.00;99.90;;;;;;10463579;28;20236;-77
2022/07/01 08:02:13;;;;;;;7.80;7.30;;;17.10;99.90;;;;;;10441845;28;20214;-79
2022/07/01 08:07:15;;;;;;;7.00;6.63;;;17.00;99.90;;;;;;10458098;28;20232;-78
2022/07/01 08:12:19;;;;;;;7.67;7.23;;;17.00;99.90;;;;;;10459485;28;20664;-78
2022/07/01 08:17:21;;;;;;;6.90;6.50;;;16.90;99.90;;;;;;10459149;28;20647;-77
2022/07/01 08:22:24;;;;;;;5.93;5.20;;;16.90;99.90;;;;;;10441190;28;20201;-79
2022/07/01 08:27:27;;;;;;;5.80;5.40;;;17.00;99.90;;;;;;10458181;28;20282;-79
2022/07/01 08:32:30;;;;;;;4.87;4.67;;;17.00;99.90;;;;;;10457265;28;20201;-79
2022/07/01 08:37:32;;;;;;;6.60;6.13;;;17.00;99.90;;;;;;10456163;28;20248;-78
2022/07/01 08:42:36;;;;;;;4.87;4.67;;;17.00;99.90;;;;;;10443591;28;20251;-78
2022/07/01 08:47:51;;;;;;;4.80;4.30;;;17.10;99.90;;;;;;10441716;28;20225;-77
2022/07/01 08:52:53;;;;;;;5.57;4.90;;;17.10;99.90;;;;;;10457195;28;20197;-78
2022/07/01 08:57:57;;;;;;;5.90;5.60;;;17.20;99.90;;;;;;10458757;28;20213;-79
2022/07/01 09:03:00;;;;;;;4.83;4.63;;;17.20;99.90;;;;;;10457719;28;20255;-78
2022/07/01 09:08:05;;;;;;;6.07;5.77;;;17.30;99.90;;;;;;10457005;28;20714;-79
2022/07/01 09:13:10;;;;;;;5.33;5.10;;;17.40;99.90;;;;;;10450584;28;20241;-78
2022/07/01 09:18:14;;;;;;;6.60;6.10;;;17.40;99.90;;;;;;10462308;28;20227;-79
2022/07/01 09:23:18;;;;;;;6.90;6.50;;;17.40;99.90;;;;;;10457695;28;20204;-79
2022/07/01 09:28:22;;;;;;;5.40;5.20;;;17.40;99.90;;;;;;10456904;28;20228;-78
2022/07/01 09:33:26;;;;;;;7.43;7.00;;;17.30;99.90;;;;;;10458688;28;20193;-78
2022/07/01 09:38:28;;;;;;;7.53;7.10;;;17.30;99.90;;;;;;10458251;28;20221;-76
2022/07/01 09:43:34;;;;;;;8.50;7.90;;;17.20;99.90;;;;;;10458617;28;20220;-78
2022/07/01 09:48:46;;;;;;;5.77;5.47;;;17.10;99.90;;;;;;10457771;28;20221;-77
2022/07/01 09:53:48;;;;;;;7.77;7.30;;;17.00;99.90;;;;;;10437395;28;20625;-78
2022/07/01 09:58:52;;;;;;;8.23;7.63;;;16.90;99.90;;;;;;10454863;28;20221;-77
2022/07/01 10:03:57;;;;;;;7.10;6.70;;;16.90;99.90;;;;;;10454032;28;20239;-78
2022/07/01 10:09:12;;;;;;;6.37;6.07;;;16.90;99.90;;;;;;10435465;28;20221;-78
2022/07/01 10:14:16;;;;;;;6.23;5.90;;;16.90;99.90;;;;;;10457035;28;20201;-78
2022/07/01 10:19:29;;;;;;;8.30;7.90;;;17.00;99.90;;;;;;10458516;28;20224;-78
2022/07/01 10:24:31;;;;;;;6.73;6.33;;;17.00;99.90;;;;;;10462868;28;20208;-77
2022/07/01 10:29:39;;;;;;;7.60;7.20;;;17.10;99.90;;;;;;10453366;28;20221;-78
2022/07/01 10:34:44;;;;;;;7.33;6.93;;;17.30;99.90;;;;;;10434724;28;20189;-76
2022/07/01 10:40:07;;;;;;;6.10;5.70;;;17.50;99.90;;;;;;10450552;28;20257;-76
2022/07/01 10:45:12;;;;;;;6.80;6.50;;;17.70;99.90;;;;;;10445953;28;20212;-76
2022/07/01 10:50:16;;;;;;;5.97;5.67;;;18.10;99.90;;;;;;10449950;28;20225;-77
2022/07/01 10:55:18;;;;;;;5.73;5.33;;;18.40;99.90;;;;;;10449699;28;20228;-77
2022/07/01 11:00:31;;;;;;;5.50;5.20;;;18.80;99.90;;;;;;10450448;28;20224;-77
2022/07/01 11:05:36;;;;;;;4.50;4.20;;;18.90;99.90;;;;;;10449454;28;20220;-78
2022/07/01 11:10:38;;;;;;;5.17;4.87;;;19.00;99.90;;;;;;10414735;28;20232;-77
2022/07/01 11:15:45;;;;;;;5.10;4.80;;;19.00;99.90;;;;;;10451733;28;20280;-76
2022/07/01 11:20:47;;;;;;;4.30;4.10;;;18.90;99.90;;;;;;10454819;28;20347;-77
2022/07/01 11:25:49;;;;;;;4.83;4.40;;;18.90;99.90;;;;;;10456447;28;20279;-77
2022/07/01 11:31:00;;;;;;;11.37;10.43;;;18.90;99.90;;;;;;10462332;28;20228;-76
2022/07/01 11:41:25;;;;;;;4.17;3.97;;;18.90;99.90;;;;;;10462773;28;20204;-78
2022/07/01 11:46:29;;;;;;;3.70;3.50;;;18.90;99.90;;;;;;10458310;28;20215;-79
2022/07/01 11:51:31;;;;;;;3.53;3.33;;;19.10;99.90;;;;;;10476293;28;20200;-77
2022/07/01 11:56:35;;;;;;;3.00;2.90;;;19.30;99.90;;;;;;10458863;28;20189;-79
2022/07/01 12:01:39;;;;;;;3.03;2.93;;;19.60;99.90;;;;;;10458330;28;20193;-79
2022/07/01 12:06:42;;;;;;;2.57;2.43;;;19.80;99.90;;;;;;10476789;28;20304;-78
2022/07/01 12:11:49;;;;;;;3.00;2.90;;;20.00;99.90;;;;;;10478663;28;20190;-80
2022/07/01 12:16:54;;;;;;;2.40;2.30;;;20.30;99.90;;;;;;10447342;28;20322;-80
2022/07/01 12:21:59;;;;;;;2.63;2.40;;;20.50;99.90;;;;;;10476573;28;20270;-77
2022/07/01 12:27:04;;;;;;;2.00;1.90;;;20.60;99.90;;;;;;10453976;28;20221;-77
2022/07/01 12:32:12;;;;;;;2.00;1.90;;;20.80;99.90;;;;;;10470348;28;20618;-77
2022/07/01 12:37:15;;;;;;;1.60;1.50;;;21.00;99.90;;;;;;10475277;28;20700;-79
2022/07/01 12:42:25;;;;;;;1.93;1.83;;;21.10;99.90;;;;;;10446556;28;20209;-80
2022/07/01 12:47:30;;;;;;;1.83;1.70;;;20.90;99.90;;;;;;10453469;28;20225;-80
2022/07/01 12:52:33;;;;;;;2.20;2.10;;;20.70;99.90;;;;;;10456395;28;20213;-79
2022/07/01 12:57:35;;;;;;;2.47;2.27;;;20.50;99.90;;;;;;10418767;28;20264;-79
2022/07/01 13:02:38;;;;;;;3.13;2.73;;;20.30;99.90;;;;;;10434728;28;20261;-80
2022/07/01 13:07:40;;;;;;;3.13;3.00;;;20.00;99.90;;;;;;10452766;28;20221;-80
2022/07/01 13:12:44;;;;;;;2.93;2.73;;;19.70;99.90;;;;;;10435355;28;20758;-79
2022/07/01 13:17:48;;;;;;;4.17;3.57;;;19.50;99.90;;;;;;10417672;28;20540;-80
2022/07/01 13:22:50;;;;;;;3.20;2.93;;;19.50;99.90;;;;;;10432965;28;20232;-78
2022/07/01 13:27:52;;;;;;;2.63;2.53;;;19.50;99.90;;;;;;10426219;28;20229;-78
2022/07/01 13:32:56;;;;;;;2.50;2.30;;;19.70;99.90;;;;;;10426915;28;21303;-77
2022/07/01 13:37:58;;;;;;;3.07;2.90;;;19.90;99.90;;;;;;10445306;28;20221;-78
2022/07/01 13:43:00;;;;;;;2.60;2.40;;;20.30;99.90;;;;;;10438260;28;20216;-78
2022/07/01 13:48:04;;;;;;;3.40;2.70;;;20.50;99.90;;;;;;10444194;28;20248;-77
2022/07/01 13:53:06;;;;;;;2.57;2.43;;;20.60;99.90;;;;;;10446911;28;20231;-78
2022/07/01 13:58:08;;;;;;;2.10;2.00;;;20.60;99.90;;;;;;10448307;28;20263;-77
2022/07/01 14:03:14;;;;;;;3.10;2.60;;;20.50;99.90;;;;;;10450238;28;20209;-78
2022/07/01 14:08:16;;;;;;;2.20;2.10;;;20.60;99.90;;;;;;10449867;28;20256;-77
2022/07/01 14:13:20;;;;;;;2.17;2.07;;;20.70;99.90;;;;;;10433007;28;20194;-76
2022/07/01 14:18:24;;;;;;;1.87;1.77;;;20.90;99.90;;;;;;10436049;28;20300;-78
2022/07/01 14:23:26;;;;;;;1.90;1.80;;;20.80;99.90;;;;;;10450223;28;20201;-77
2022/07/01 14:28:28;;;;;;;2.20;2.10;;;20.90;99.90;;;;;;10457951;28;20213;-77
2022/07/01 14:33:31;;;;;;;2.97;2.10;;;21.00;99.90;;;;;;10434064;28;20288;-77
2022/07/01 14:38:34;;;;;;;2.17;2.03;;;20.90;99.90;;;;;;10452328;28;20284;-77
2022/07/01 14:43:36;;;;;;;3.93;2.80;;;20.70;99.90;;;;;;10432998;28;20228;-77
2022/07/01 14:48:39;;;;;;;2.03;1.93;;;20.50;99.90;;;;;;10437991;28;20547;-78
2022/07/01 14:53:41;;;;;;;2.30;2.20;;;20.40;99.90;;;;;;10451593;28;20259;-77
2022/07/01 14:58:43;;;;;;;1.63;1.53;;;20.20;99.90;;;;;;10462599;28;20435;-80
2022/07/01 15:03:47;;;;;;;2.30;2.10;;;20.10;99.90;;;;;;10444836;28;20611;-77
2022/07/01 15:08:52;;;;;;;1.30;1.20;;;20.00;99.90;;;;;;10440511;28;20266;-77
2022/07/01 15:13:54;;;;;;;2.00;1.90;;;20.00;99.90;;;;;;10458208;28;20197;-77
2022/07/01 15:19:01;;;;;;;2.30;1.87;;;20.00;99.90;;;;;;10463755;28;20225;-80
2022/07/01 15:24:03;;;;;;;1.93;1.83;;;20.00;99.90;;;;;;10460080;28;20205;-77
2022/07/01 15:29:05;;;;;;;2.33;2.23;;;20.10;99.90;;;;;;10456933;28;20271;-77
2022/07/01 15:34:10;;;;;;;2.43;2.23;;;20.10;99.90;;;;;;10455992;28;20201;-77
2022/07/01 15:39:13;;;;;;;1.40;1.30;;;20.10;99.90;;;;;;10454509;28;20236;-77
2022/07/01 15:44:15;;;;;;;2.13;2.03;;;20.10;99.90;;;;;;10463016;28;20205;-78
2022/07/01 15:49:18;;;;;;;1.40;1.30;;;20.10;99.90;;;;;;10449380;28;20225;-79
2022/07/01 15:54:20;;;;;;;1.50;1.40;;;20.20;99.90;;;;;;10457526;28;20201;-78
2022/07/01 15:59:22;;;;;;;1.70;1.60;;;20.20;99.90;;;;;;10465069;28;20221;-80
2022/07/01 16:04:33;;;;;;;1.70;1.60;;;20.20;99.90;;;;;;10461003;28;20240;-79
2022/07/01 16:09:43;;;;;;;1.27;1.20;;;20.30;99.90;;;;;;10460562;28;20316;-80
2022/07/01 16:14:46;;;;;;;1.80;1.70;;;20.30;99.90;;;;;;10443812;28;20283;-80
2022/07/01 16:19:53;;;;;;;3.23;2.07;;;20.30;99.90;;;;;;10448664;28;20246;-80
2022/07/01 16:24:56;;;;;;;1.90;1.80;;;20.40;99.90;;;;;;10461145;28;20224;-80
2022/07/01 16:29:58;;;;;;;1.83;1.73;;;20.40;99.90;;;;;;10460411;28;20244;-79
2022/07/01 16:35:02;;;;;;;2.10;2.00;;;20.40;99.90;;;;;;10463167;28;20611;-78
2022/07/01 16:40:09;;;;;;;4.20;2.53;;;20.40;99.90;;;;;;10459671;28;20256;-78
2022/07/01 16:45:12;;;;;;;1.93;1.83;;;20.40;99.90;;;;;;10442645;28;20299;-80
2022/07/01 16:50:16;;;;;;;1.93;1.83;;;20.40;99.90;;;;;;10457082;28;20802;-77
2022/07/01 16:55:24;;;;;;;2.10;2.00;;;20.40;99.90;;;;;;10457860;28;20562;-79
2022/07/01 17:00:26;;;;;;;1.80;1.70;;;20.40;99.90;;;;;;10456436;28;20259;-78
2022/07/01 17:05:31;;;;;;;1.33;1.23;;;20.40;99.90;;;;;;10453959;28;20209;-77
2022/07/01 17:10:34;;;;;;;1.70;1.60;;;20.40;99.90;;;;;;10453846;28;20227;-78
2022/07/01 17:15:36;;;;;;;1.80;1.67;;;20.40;99.90;;;;;;10457305;28;20213;-77
2022/07/01 17:20:43;;;;;;;2.17;1.93;;;20.30;99.90;;;;;;10435256;28;20581;-77
2022/07/01 17:25:50;;;;;;;1.90;1.80;;;20.30;99.90;;;;;;10452868;28;20228;-78
2022/07/01 17:30:59;;;;;;;1.90;1.80;;;20.30;99.90;;;;;;10459199;28;20232;-76
2022/07/01 17:36:03;;;;;;;1.67;1.57;;;20.30;99.90;;;;;;10435443;28;20658;-80
2022/07/01 17:41:07;;;;;;;1.90;1.80;;;20.30;99.90;;;;;;10455755;28;20547;-78
2022/07/01 17:46:11;;;;;;;3.07;2.37;;;20.30;99.90;;;;;;10444165;28;20217;-78
2022/07/01 17:51:16;;;;;;;2.53;2.33;;;20.30;99.90;;;;;;10454065;28;20263;-77
2022/07/01 17:56:18;;;;;;;2.13;2.03;;;20.30;99.90;;;;;;10435139;28;20272;-77
2022/07/01 18:01:22;;;;;;;2.43;2.30;;;20.30;99.90;;;;;;10453128;28;20198;-78
2022/07/01 18:06:27;;;;;;;1.93;1.73;;;20.20;99.90;;;;;;10448258;28;20576;-79
2022/07/01 18:11:39;;;;;;;3.10;2.90;;;20.20;99.90;;;;;;10447305;28;20217;-78
2022/07/01 18:16:57;;;;;;;2.10;1.90;;;20.20;99.90;;;;;;10438450;28;20221;-81
2022/07/01 18:22:03;;;;;;;3.07;2.87;;;20.20;99.90;;;;;;10456788;28;20607;-81
2022/07/01 18:27:09;;;;;;;2.80;2.30;;;20.20;99.90;;;;;;10457765;28;20287;-80
2022/07/01 18:32:12;;;;;;;3.00;2.50;;;20.10;99.90;;;;;;10456730;28;20197;-81
2022/07/01 18:37:18;;;;;;;2.30;2.20;;;20.10;99.90;;;;;;10456724;28;20308;-78
2022/07/01 18:42:20;;;;;;;2.60;2.40;;;20.00;99.90;;;;;;10453051;28;20618;-78
2022/07/01 18:47:22;;;;;;;2.30;2.10;;;19.90;99.90;;;;;;10439009;28;20705;-78
2022/07/01 18:53:03;;;;;;;2.37;2.27;;;20.00;99.90;;;;;;10453377;28;20231;-78
2022/07/01 18:58:05;;;;;;;2.00;1.90;;;19.90;99.90;;;;;;10434952;28;20272;-79
2022/07/01 19:03:07;;;;;;;2.53;2.43;;;19.90;99.90;;;;;;10457826;28;20236;-78
2022/07/01 19:08:11;;;;;;;2.20;1.90;;;19.90;99.90;;;;;;10438306;28;20280;-78
2022/07/01 19:13:13;;;;;;;2.83;2.50;;;19.80;99.90;;;;;;10456966;28;20201;-78
2022/07/01 19:18:15;;;;;;;3.53;1.80;;;19.70;99.90;;;;;;10455821;28;20287;-78
2022/07/01 19:23:19;;;;;;;2.70;2.60;;;19.50;99.90;;;;;;10455876;28;20208;-78
2022/07/01 19:28:21;;;;;;;2.43;2.33;;;19.40;99.90;;;;;;10455227;28;20237;-78
2022/07/01 19:33:23;;;;;;;2.00;1.90;;;19.30;99.90;;;;;;10455985;28;20201;-78
2022/07/01 19:38:27;;;;;;;2.70;2.50;;;19.10;99.90;;;;;;10438270;28;20731;-77
2022/07/01 19:43:29;;;;;;;1.53;1.43;;;19.00;99.90;;;;;;10456822;28;20197;-77
2022/07/01 19:48:31;;;;;;;2.20;1.70;;;18.90;99.90;;;;;;10454667;28;20700;-76
2022/07/01 19:53:35;;;;;;;2.37;2.27;;;18.80;99.90;;;;;;10453108;28;20251;-77
2022/07/01 19:58:37;;;;;;;3.07;2.20;;;18.60;99.90;;;;;;10457903;28;20235;-78
2022/07/01 20:03:39;;;;;;;2.20;2.10;;;18.50;99.90;;;;;;10440360;28;20200;-78
2022/07/01 20:08:42;;;;;;;2.20;1.90;;;18.50;99.90;;;;;;10463167;28;20235;-78
2022/07/01 20:13:45;;;;;;;2.07;1.90;;;18.40;99.90;;;;;;10414949;28;20208;-76
2022/07/01 20:18:47;;;;;;;2.67;2.40;;;18.30;99.90;;;;;;10464276;28;20225;-81
2022/07/01 20:23:51;;;;;;;2.60;2.50;;;18.20;99.90;;;;;;10454459;28;20201;-80
2022/07/01 20:28:53;;;;;;;2.50;2.30;;;18.20;99.90;;;;;;10441005;28;20236;-81
2022/07/01 20:33:55;;;;;;;2.40;2.20;;;18.10;99.90;;;;;;10462861;28;20211;-76
2022/07/01 20:39:00;;;;;;;2.70;2.50;;;18.00;99.90;;;;;;10473542;28;20243;-80
2022/07/01 20:44:02;;;;;;;2.30;2.20;;;18.00;99.90;;;;;;10448686;28;20226;-79
2022/07/01 20:49:04;;;;;;;3.27;2.77;;;17.90;99.90;;;;;;10454794;28;20296;-80
2022/07/01 20:54:07;;;;;;;3.10;2.80;;;17.90;99.90;;;;;;10453949;28;20205;-79
2022/07/01 20:59:09;;;;;;;4.73;3.10;;;18.00;99.90;;;;;;10430858;28;20221;-79
2022/07/01 21:04:12;;;;;;;3.47;3.27;;;18.00;99.90;;;;;;10436431;28;20198;-79
2022/07/01 21:09:15;;;;;;;2.60;2.40;;;18.10;99.90;;;;;;10435715;28;20243;-79
2022/07/01 21:14:18;;;;;;;2.60;2.50;;;18.10;99.90;;;;;;10453976;28;20664;-79
2022/07/01 21:19:20;;;;;;;2.60;2.50;;;18.10;99.90;;;;;;10475187;28;20588;-78
2022/07/01 21:24:23;;;;;;;2.80;2.70;;;18.00;99.90;;;;;;10476348;28;20201;-79
2022/07/01 21:29:25;;;;;;;2.77;2.67;;;18.00;99.90;;;;;;10453185;28;20621;-79
2022/07/01 21:34:28;;;;;;;2.87;2.67;;;18.00;99.90;;;;;;10471490;28;20219;-78
2022/07/01 21:39:32;;;;;;;3.00;2.87;;;17.90;99.90;;;;;;10453098;28;20220;-79
2022/07/01 21:44:35;;;;;;;3.97;2.80;;;17.80;99.90;;;;;;10449757;28;20193;-80
2022/07/01 21:49:39;;;;;;;4.23;3.03;;;17.80;99.90;;;;;;10449788;28;20231;-77
2022/07/01 21:54:44;;;;;;;2.90;2.80;;;17.80;99.90;;;;;;10450802;28;20197;-77
2022/07/01 21:59:50;;;;;;;3.10;3.00;;;17.70;99.90;;;;;;10452914;28;20217;-77
2022/07/01 22:04:54;;;;;;;2.70;2.60;;;17.70;99.90;;;;;;10431839;28;20228;-77
2022/07/01 22:09:58;;;;;;;3.57;3.37;;;17.70;99.90;;;;;;10449563;28;20311;-77
2022/07/01 22:15:07;;;;;;;3.37;3.17;;;17.60;99.90;;;;;;10449852;28;20197;-76
2022/07/01 22:20:12;;;;;;;3.10;2.90;;;17.60;99.90;;;;;;10428659;28;20302;-77
2022/07/01 22:25:17;;;;;;;3.20;3.00;;;17.60;99.90;;;;;;10446222;28;20215;-76
2022/07/01 22:30:21;;;;;;;2.67;2.47;;;17.60;99.90;;;;;;10450686;28;20685;-77
2022/07/01 22:35:26;;;;;;;3.17;2.97;;;17.60;99.90;;;;;;10450301;28;20209;-77
2022/07/01 22:40:32;;;;;;;2.80;2.70;;;17.50;99.90;;;;;;10433602;28;20252;-79
2022/07/01 22:45:46;;;;;;;3.60;3.40;;;17.50;99.90;;;;;;10437997;28;20267;-77
2022/07/01 22:50:52;;;;;;;3.53;3.27;;;17.40;99.90;;;;;;10450299;28;20308;-77
2022/07/01 22:56:00;;;;;;;3.87;3.67;;;17.40;99.90;;;;;;10429454;28;20276;-77
2022/07/01 23:01:05;;;;;;;3.33;3.17;;;17.40;99.90;;;;;;10434276;28;20705;-77
2022/07/01 23:06:12;;;;;;;3.40;3.20;;;17.40;99.90;;;;;;10451655;28;20677;-79
2022/07/01 23:11:18;;;;;;;3.57;3.37;;;17.40;99.90;;;;;;10451730;28;20684;-77
2022/07/01 23:16:29;;;;;;;4.33;4.07;;;17.40;99.90;;;;;;10463620;28;20367;-76
2022/07/01 23:21:31;;;;;;;4.53;4.23;;;17.40;99.90;;;;;;10462595;28;20197;-76
2022/07/01 23:26:37;;;;;;;3.77;3.47;;;17.40;99.90;;;;;;10459177;28;20769;-77
2022/07/01 23:31:42;;;;;;;3.17;2.97;;;17.40;99.90;;;;;;10458270;28;20204;-77
2022/07/01 23:36:45;;;;;;;3.40;3.20;;;17.40;99.90;;;;;;10440131;28;20232;-79
2022/07/01 23:41:48;;;;;;;3.60;3.40;;;17.40;99.90;;;;;;10443797;28;20296;-79
2022/07/01 23:46:50;;;;;;;3.10;3.00;;;17.30;99.90;;;;;;10443191;28;20259;-79
2022/07/01 23:51:52;;;;;;;3.10;3.00;;;17.20;99.90;;;;;;10462068;28;20224;-80
2022/07/01 23:56:56;;;;;;;3.17;3.03;;;17.20;99.90;;;;;;10449446;28;20224;-77
